Time;durP1;ratioP1;P1;durP2;ratioP2;P2;SDS_P1;SDS_P2;PMS_P1;PMS_P2;Temp;Humidity;BMP_temperature;BMP_pressure;BME280_temperature;BME280_humidity;BME280_pressure;Samples;Min_cycle;Max_cycle;Signal;HPM_P1;HPM_P2
2022/07/16 00:02:39;;;;;;;3.87;3.52;;;;;;;15.96;86.29;99819.45;1792340;79;21476;-83
2022/07/16 00:05:06;;;;;;;3.80;3.40;;;;;;;15.90;86.34;99822.95;1791516;78;21048;-83
2022/07/16 00:07:34;;;;;;;4.55;2.98;;;;;;;15.85;86.32;99828.07;1801526;78;21057;-81
2022/07/16 00:10:00;;;;;;;3.50;3.02;;;;;;;15.85;86.07;99826.20;1815278;78;21053;-82
2022/07/16 00:12:29;;;;;;;5.35;3.83;;;;;;;15.90;85.63;99822.95;1806808;78;21029;-81
2022/07/16 00:14:56;;;;;;;5.08;3.65;;;;;;;15.86;85.75;99824.38;1811858;77;21549;-80
2022/07/16 00:17:24;;;;;;;4.90;3.98;;;;;;;15.82;85.91;99831.13;1814653;78;20994;-81
2022/07/16 00:19:50;;;;;;;5.92;3.50;;;;;;;15.74;86.22;99829.45;1781655;78;21072;-81
2022/07/16 00:22:17;;;;;;;5.08;3.58;;;;;;;15.71;86.23;99826.64;1788409;78;21012;-80
2022/07/16 00:24:44;;;;;;;6.85;3.25;;;;;;;15.69;86.18;99825.20;1789230;78;21103;-79
2022/07/16 00:27:11;;;;;;;8.20;4.20;;;;;;;15.60;86.33;99837.09;1795331;79;21041;-83
2022/07/16 00:29:38;;;;;;;4.08;3.08;;;;;;;15.48;86.67;99834.16;1794871;79;20997;-82
2022/07/16 00:32:05;;;;;;;5.72;3.30;;;;;;;15.43;86.85;99832.58;1800533;78;21005;-82
2022/07/16 00:34:32;;;;;;;6.47;3.45;;;;;;;15.46;86.91;99831.67;1804338;78;20975;-83
2022/07/16 00:37:00;;;;;;;3.25;2.95;;;;;;;15.41;87.05;99833.28;1788104;78;21561;-80
2022/07/16 00:39:27;;;;;;;3.60;3.30;;;;;;;15.34;87.31;99835.41;1793862;78;21504;-83
2022/07/16 00:41:53;;;;;;;5.58;3.17;;;;;;;15.28;87.33;99834.88;1796239;78;21052;-83
2022/07/16 00:44:21;;;;;;;5.50;3.20;;;;;;;15.35;87.28;99832.22;1802451;78;21112;-84
2022/07/16 00:46:48;;;;;;;4.15;3.15;;;;;;;15.33;87.24;99832.41;1774117;78;21093;-82
2022/07/16 00:49:15;;;;;;;4.22;3.50;;;;;;;15.25;87.44;99838.45;1784545;79;21242;-82
2022/07/16 00:51:46;;;;;;;3.83;2.85;;;;;;;15.15;87.71;99837.45;1808447;78;21071;-81
2022/07/16 00:54:13;;;;;;;4.33;3.02;;;;;;;15.17;87.68;99837.27;1781024;79;21021;-79
2022/07/16 00:56:40;;;;;;;4.25;3.25;;;;;;;15.24;87.40;99837.62;1820818;78;21041;-78
2022/07/16 00:59:06;;;;;;;5.17;3.10;;;;;;;15.21;87.26;99838.53;1793703;78;21111;-81
2022/07/16 01:01:33;;;;;;;3.42;3.12;;;;;;;15.17;87.50;99841.28;1797389;78;21106;-81
2022/07/16 01:04:03;;;;;;;8.20;3.77;;;;;;;15.13;87.52;99838.16;1789585;78;21045;-77
2022/07/16 01:06:29;;;;;;;3.87;3.15;;;;;;;15.20;87.37;99832.84;1806300;77;21072;-77
2022/07/16 01:08:56;;;;;;;3.58;2.85;;;;;;;15.31;87.00;99831.78;1807043;78;21060;-79
2022/07/16 01:11:23;;;;;;;3.37;2.62;;;;;;;15.33;86.87;99827.58;1769094;78;21093;-78
2022/07/16 01:13:50;;;;;;;3.58;2.80;;;;;;;15.31;86.72;99830.97;1805879;78;21328;-80
2022/07/16 01:16:18;;;;;;;4.42;3.08;;;;;;;15.30;86.63;99830.66;1766466;79;21044;-79
2022/07/16 01:18:45;;;;;;;9.25;3.25;;;;;;;15.33;86.38;99833.75;1822169;78;21040;-82
2022/07/16 01:21:13;;;;;;;9.45;3.40;;;;;;;15.43;85.94;99830.75;1781515;78;20997;-82
2022/07/16 01:23:40;;;;;;;4.75;3.30;;;;;;;15.42;86.25;99835.77;1818270;73;20970;-82
2022/07/16 01:26:07;;;;;;;5.78;3.67;;;;;;;15.41;86.19;99830.61;1815203;77;21389;-82
2022/07/16 01:28:33;;;;;;;9.03;3.10;;;;;;;15.39;85.93;99829.46;1822125;77;20922;-82
2022/07/16 01:31:00;;;;;;;4.97;3.33;;;;;;;15.43;85.72;99826.73;1800350;78;20997;-80
2022/07/16 01:33:31;;;;;;;3.15;2.80;;;;;;;15.51;85.20;99832.41;1822941;78;21021;-84
2022/07/16 01:36:09;;;;;;;4.40;3.05;;;;;;;15.43;84.99;99831.23;1771191;78;21041;-84
2022/07/16 01:38:45;;;;;;;3.70;2.85;;;;;;;15.32;84.99;99840.66;1792968;79;21897;-83
2022/07/16 01:41:12;;;;;;;2.83;2.60;;;;;;;15.22;85.08;99838.34;1784505;79;21022;-84
2022/07/16 01:43:39;;;;;;;4.47;2.60;;;;;;;15.21;85.04;99844.70;1816752;77;20986;-82
2022/07/16 01:46:06;;;;;;;2.92;2.67;;;;;;;15.28;84.80;99842.08;1805565;78;21044;-81
2022/07/16 01:48:32;;;;;;;3.15;2.72;;;;;;;15.23;84.74;99846.66;1778568;78;21067;-83
2022/07/16 01:50:59;;;;;;;3.52;3.15;;;;;;;15.16;84.82;99847.64;1792268;78;21223;-83
2022/07/16 01:53:28;;;;;;;3.87;2.75;;;;;;;15.06;84.91;99842.64;1810216;78;20997;-81
2022/07/16 01:55:55;;;;;;;5.00;2.67;;;;;;;15.09;84.70;99842.26;1803766;78;21577;-84
2022/07/16 01:58:21;;;;;;;4.65;2.77;;;;;;;15.16;84.49;99840.95;1795012;77;21029;-84
2022/07/16 02:00:48;;;;;;;4.05;2.90;;;;;;;15.11;84.47;99845.05;1803649;78;20998;-84
2022/07/16 02:03:16;;;;;;;3.12;2.52;;;;;;;15.05;84.53;99840.48;1766034;78;21130;-84
2022/07/16 02:05:43;;;;;;;4.30;2.70;;;;;;;14.98;84.70;99842.79;1792217;78;21001;-84
2022/07/16 02:08:09;;;;;;;3.98;2.70;;;;;;;14.98;84.72;99844.12;1792776;78;21761;-82
2022/07/16 02:10:38;;;;;;;3.72;2.60;;;;;;;15.05;84.58;99849.84;1783854;78;21041;-83
2022/07/16 02:13:05;;;;;;;4.08;2.60;;;;;;;15.00;84.58;99850.92;1782303;78;21565;-83
2022/07/16 02:15:32;;;;;;;3.98;2.70;;;;;;;14.93;84.73;99846.03;1812912;78;21205;-82
2022/07/16 02:17:59;;;;;;;3.75;2.85;;;;;;;14.86;84.91;99848.66;1803909;78;21056;-81
2022/07/16 02:20:26;;;;;;;4.37;2.80;;;;;;;14.92;84.77;99849.22;1812224;77;20994;-84
2022/07/16 02:22:53;;;;;;;5.87;3.20;;;;;;;14.99;84.63;99851.11;1800613;78;21113;-80
2022/07/16 02:25:20;;;;;;;3.80;3.15;;;;;;;14.96;84.45;99852.86;1807358;77;21029;-82
2022/07/16 02:28:06;;;;;;;4.35;2.90;;;;;;;14.92;84.49;99846.55;1815428;75;20994;-83
2022/07/16 02:30:47;;;;;;;6.10;3.27;;;;;;;14.95;84.44;99846.69;1787329;78;20982;-82
2022/07/16 02:33:17;;;;;;;3.10;2.55;;;;;;;15.03;84.26;99851.07;1787967;78;21225;-82
2022/07/16 02:35:44;;;;;;;3.85;2.85;;;;;;;14.97;84.35;99848.66;1802770;78;21116;-80
2022/07/16 02:38:13;;;;;;;3.45;3.08;;;;;;;14.89;84.52;99858.98;1771497;78;21018;-81
2022/07/16 02:40:40;;;;;;;2.87;2.35;;;;;;;14.83;84.71;99851.71;1803418;78;21264;-80
2022/07/16 02:43:07;;;;;;;4.25;3.20;;;;;;;14.87;84.88;99856.17;1768520;78;21064;-80
2022/07/16 02:45:36;;;;;;;3.40;3.00;;;;;;;14.91;84.74;99858.28;1799027;78;21084;-80
2022/07/16 02:48:03;;;;;;;4.10;3.05;;;;;;;14.86;84.88;99855.34;1781390;78;21092;-80
2022/07/16 02:50:29;;;;;;;5.28;3.75;;;;;;;14.81;85.18;99860.95;1798811;77;21119;-81
2022/07/16 02:52:56;;;;;;;7.58;4.37;;;;;;;14.84;85.14;99857.91;1768200;79;21232;-81
2022/07/16 02:55:23;;;;;;;4.83;4.25;;;;;;;14.91;85.06;99854.76;1781306;79;21072;-80
2022/07/16 02:57:49;;;;;;;7.15;4.92;;;;;;;14.89;84.94;99859.48;1789057;78;21563;-80
2022/07/16 03:00:17;;;;;;;5.53;4.33;;;;;;;14.85;84.99;99855.02;1794158;79;21026;-81
2022/07/16 03:02:45;;;;;;;4.90;4.40;;;;;;;14.91;84.83;99857.43;1774740;78;21025;-80
2022/07/16 03:05:11;;;;;;;7.37;3.80;;;;;;;15.03;84.58;99861.25;1768568;78;21689;-78
2022/07/16 03:07:38;;;;;;;3.85;3.45;;;;;;;15.05;84.53;99857.87;1772988;78;20981;-80
2022/07/16 03:10:06;;;;;;;6.17;4.72;;;;;;;15.06;84.47;99853.34;1774225;80;21049;-80
2022/07/16 03:12:34;;;;;;;4.10;3.20;;;;;;;15.07;84.40;99850.99;1767779;80;21013;-80
2022/07/16 03:15:02;;;;;;;3.98;3.20;;;;;;;15.16;84.25;99855.67;1768094;80;21045;-81
2022/07/16 03:17:30;;;;;;;6.35;4.60;;;;;;;15.28;83.91;99856.80;1786670;78;21192;-80
2022/07/16 03:19:56;;;;;;;3.90;2.67;;;;;;;15.30;83.70;99859.59;1778555;79;21053;-80
2022/07/16 03:22:23;;;;;;;4.50;4.03;;;;;;;15.29;83.57;99859.26;1776439;79;21053;-80
2022/07/16 03:24:50;;;;;;;7.15;2.90;;;;;;;15.29;83.68;99858.44;1773247;79;21077;-81
2022/07/16 03:27:16;;;;;;;5.78;3.00;;;;;;;15.38;83.56;99858.61;1787529;79;21060;-81
2022/07/16 03:29:43;;;;;;;5.70;3.60;;;;;;;15.47;83.36;99856.09;1782025;79;21608;-83
2022/07/16 03:32:11;;;;;;;5.67;3.30;;;;;;;15.49;83.16;99858.55;1776373;80;20983;-83
2022/07/16 03:34:37;;;;;;;5.47;3.15;;;;;;;15.47;83.31;99860.59;1786985;80;22137;-81
2022/07/16 03:37:04;;;;;;;4.00;2.65;;;;;;;15.49;83.02;99861.23;1769426;80;21061;-81
2022/07/16 03:39:31;;;;;;;3.33;2.58;;;;;;;15.57;83.07;99876.30;1783625;80;21041;-82
2022/07/16 03:41:57;;;;;;;4.05;2.55;;;;;;;15.69;82.55;99868.86;1770262;78;22042;-81
2022/07/16 03:44:24;;;;;;;5.22;2.85;;;;;;;15.78;82.46;99874.08;1779307;80;21450;-85
2022/07/16 03:46:51;;;;;;;4.15;2.92;;;;;;;15.82;82.26;99872.66;1782698;80;21069;-79
2022/07/16 03:49:17;;;;;;;3.80;2.37;;;;;;;15.84;81.81;99872.79;1789651;80;21076;-78
2022/07/16 03:51:43;;;;;;;2.98;2.47;;;;;;;15.87;81.53;99875.05;1767014;78;21018;-83
2022/07/16 03:54:10;;;;;;;5.28;2.70;;;;;;;15.96;81.07;99871.70;1790170;78;21252;-82
2022/07/16 03:56:36;;;;;;;4.37;3.10;;;;;;;16.08;80.67;99872.77;1796402;79;21001;-81
2022/07/16 03:59:03;;;;;;;3.75;2.90;;;;;;;16.12;80.46;99877.22;1805045;78;21069;-80
2022/07/16 04:01:29;;;;;;;3.45;3.15;;;;;;;16.13;80.52;99872.19;1812085;77;21038;-78
2022/07/16 04:03:57;;;;;;;5.10;2.50;;;;;;;16.15;80.27;99883.53;1819787;78;21029;-80
2022/07/16 04:06:24;;;;;;;4.45;2.67;;;;;;;16.18;80.12;99879.61;1774610;79;21519;-80
2022/07/16 04:08:51;;;;;;;5.85;3.15;;;;;;;16.30;79.90;99888.22;1789443;80;21048;-78
2022/07/16 04:11:17;;;;;;;4.55;3.00;;;;;;;16.44;79.54;99878.34;1791540;78;21500;-79
2022/07/16 04:13:45;;;;;;;4.00;2.72;;;;;;;16.53;79.44;99881.64;1766305;80;21495;-79
2022/07/16 04:16:13;;;;;;;4.90;2.77;;;;;;;16.62;79.46;99877.75;1810421;78;20998;-79
2022/07/16 04:18:40;;;;;;;5.42;3.30;;;;;;;16.70;79.15;99880.23;1783063;79;21461;-80
2022/07/16 04:21:08;;;;;;;4.80;3.35;;;;;;;16.78;78.53;99880.55;1804797;78;21014;-83
2022/07/16 04:23:35;;;;;;;3.83;3.00;;;;;;;16.85;78.63;99883.28;1767781;80;21025;-84
2022/07/16 04:26:02;;;;;;;6.83;2.80;;;;;;;16.99;78.73;99880.89;1816299;78;20978;-84
2022/07/16 04:28:28;;;;;;;4.28;2.92;;;;;;;17.18;77.60;99880.58;1783467;79;21115;-83
2022/07/16 04:30:55;;;;;;;3.98;2.67;;;;;;;17.24;77.22;99878.41;1825062;78;21232;-82
2022/07/16 04:33:22;;;;;;;5.00;3.42;;;;;;;17.33;76.70;99879.02;1792179;77;20923;-84
2022/07/16 04:35:48;;;;;;;6.37;3.10;;;;;;;17.43;76.30;99878.59;1804327;77;21072;-85
2022/07/16 04:38:17;;;;;;;3.30;2.98;;;;;;;17.57;75.37;99888.27;1787298;79;21081;-84
2022/07/16 04:40:44;;;;;;;5.00;3.37;;;;;;;17.68;74.13;99882.77;1815795;78;21588;-80
2022/07/16 04:43:10;;;;;;;2.92;2.40;;;;;;;17.77;73.65;99892.25;1819131;77;21094;-81
2022/07/16 04:45:37;;;;;;;4.87;2.70;;;;;;;17.87;73.02;99886.47;1749076;80;21072;-82
2022/07/16 04:48:04;;;;;;;3.55;3.02;;;;;;;17.94;72.67;99886.42;1788972;79;21038;-81
2022/07/16 04:50:31;;;;;;;6.67;2.83;;;;;;;18.01;72.42;99882.67;1772233;79;21072;-81
2022/07/16 04:52:57;;;;;;;4.47;2.58;;;;;;;18.09;72.54;99888.33;1778162;78;21030;-82
2022/07/16 04:55:24;;;;;;;3.58;3.08;;;;;;;18.26;71.62;99884.11;1767172;79;21297;-80
2022/07/16 04:57:51;;;;;;;5.50;2.70;;;;;;;18.41;70.75;99886.52;1788888;78;21013;-81
2022/07/16 05:00:17;;;;;;;4.03;2.40;;;;;;;18.42;70.80;99881.95;1813781;78;21072;-81
2022/07/16 05:02:57;;;;;;;6.00;2.70;;;;;;;18.42;70.46;99882.77;1805429;78;21030;-82
2022/07/16 05:05:26;;;;;;;3.10;2.80;;;;;;;18.42;70.58;99888.15;1814035;77;21481;-82
2022/07/16 05:07:52;;;;;;;4.37;2.90;;;;;;;18.43;70.02;99892.50;1810222;78;21209;-81
2022/07/16 05:10:21;;;;;;;4.30;3.17;;;;;;;18.44;69.67;99886.59;1777421;78;21310;-80
2022/07/16 05:12:48;;;;;;;5.05;3.58;;;;;;;18.47;69.37;99890.20;1819794;78;21592;-80
2022/07/16 05:15:14;;;;;;;4.85;3.22;;;;;;;18.52;69.58;99886.86;1813405;78;20997;-80
2022/07/16 05:17:41;;;;;;;5.85;3.20;;;;;;;18.54;69.30;99890.97;1790948;79;21497;-80
2022/07/16 05:20:09;;;;;;;6.97;3.10;;;;;;;18.63;69.02;99891.55;1801926;77;21533;-80
2022/07/16 05:22:35;;;;;;;3.20;2.90;;;;;;;18.78;68.65;99890.72;1799605;78;21071;-80
2022/07/16 05:25:05;;;;;;;4.87;2.92;;;;;;;18.97;68.51;99886.80;1801277;78;20954;-80
2022/07/16 05:27:32;;;;;;;5.58;2.87;;;;;;;19.16;68.75;99889.84;1789751;78;21062;-80
2022/07/16 05:29:59;;;;;;;4.47;3.30;;;;;;;19.32;67.62;99886.28;1795646;78;21011;-80
2022/07/16 05:32:26;;;;;;;6.25;3.00;;;;;;;19.44;66.36;99889.34;1792062;78;21585;-80
2022/07/16 05:34:54;;;;;;;5.85;2.95;;;;;;;19.48;65.42;99892.42;1792607;78;21003;-82
2022/07/16 05:37:21;;;;;;;4.45;2.30;;;;;;;19.51;65.88;99898.72;1806751;78;21084;-79
2022/07/16 05:39:47;;;;;;;3.50;2.55;;;;;;;19.51;65.57;99887.95;1814240;78;20983;-81
2022/07/16 05:42:14;;;;;;;4.47;2.62;;;;;;;19.53;64.98;99895.28;1807618;78;21006;-79
2022/07/16 05:44:41;;;;;;;5.55;2.72;;;;;;;19.50;64.38;99891.67;1797570;78;21516;-79
2022/07/16 05:47:07;;;;;;;5.37;3.05;;;;;;;19.45;64.50;99896.39;1804614;77;21101;-80
2022/07/16 05:49:34;;;;;;;5.70;3.00;;;;;;;19.42;64.88;99896.83;1789362;79;21010;-80
2022/07/16 05:52:00;;;;;;;3.35;2.70;;;;;;;19.43;64.40;99898.48;1777292;78;21009;-79
2022/07/16 05:54:27;;;;;;;5.17;2.58;;;;;;;19.44;64.19;99896.61;1789961;79;21030;-80
2022/07/16 05:56:54;;;;;;;3.90;2.70;;;;;;;19.47;64.05;99894.83;1798015;78;21226;-81
2022/07/16 05:59:20;;;;;;;2.50;2.30;;;;;;;19.54;63.72;99894.22;1771165;79;21108;-81
2022/07/16 06:01:47;;;;;;;4.08;2.45;;;;;;;19.56;63.56;99892.66;1810123;78;21052;-79
2022/07/16 06:04:13;;;;;;;4.87;2.65;;;;;;;19.56;63.83;99884.57;1820865;77;20989;-82
2022/07/16 06:06:40;;;;;;;5.10;3.17;;;;;;;19.60;63.50;99883.89;1770974;80;21791;-81
2022/07/16 06:09:08;;;;;;;4.60;2.47;;;;;;;19.64;63.16;99887.81;1813296;78;21198;-82
2022/07/16 06:11:35;;;;;;;5.83;2.70;;;;;;;19.72;63.25;99887.22;1795268;79;21450;-80
2022/07/16 06:14:01;;;;;;;3.15;2.17;;;;;;;19.79;62.45;99889.33;1820660;77;21061;-80
2022/07/16 06:16:28;;;;;;;7.25;2.52;;;;;;;19.87;61.86;99888.20;1794261;78;21549;-77
2022/07/16 06:18:54;;;;;;;3.87;2.05;;;;;;;19.93;61.15;99881.90;1796974;78;21044;-79
2022/07/16 06:21:21;;;;;;;4.15;2.58;;;;;;;19.98;60.52;99881.52;1792299;78;21522;-78
2022/07/16 06:23:47;;;;;;;3.70;2.40;;;;;;;20.06;60.81;99883.62;1772730;78;21040;-78
2022/07/16 06:26:14;;;;;;;3.05;2.42;;;;;;;20.16;60.88;99883.36;1774452;80;21766;-79
2022/07/16 06:28:41;;;;;;;4.12;2.33;;;;;;;20.26;60.44;99880.65;1793878;78;21092;-80
2022/07/16 06:31:08;;;;;;;3.62;2.45;;;;;;;20.35;60.17;99886.03;1799773;78;21058;-78
2022/07/16 06:33:35;;;;;;;6.67;3.05;;;;;;;20.40;60.34;99879.43;1790918;78;21280;-79
2022/07/16 06:36:01;;;;;;;3.25;2.20;;;;;;;20.48;59.84;99879.63;1818213;77;21148;-77
2022/07/16 06:38:28;;;;;;;3.40;2.02;;;;;;;20.54;59.36;99884.11;1819115;77;20947;-78
2022/07/16 06:40:55;;;;;;;3.35;2.20;;;;;;;20.57;59.23;99885.82;1810784;78;21612;-78
2022/07/16 06:43:21;;;;;;;2.42;2.22;;;;;;;20.63;59.39;99886.81;1773242;78;21029;-78
2022/07/16 06:45:47;;;;;;;2.87;2.02;;;;;;;20.67;59.31;99885.30;1803576;78;21129;-79
2022/07/16 06:48:15;;;;;;;3.92;2.22;;;;;;;20.72;57.90;99883.23;1777887;80;21009;-80
2022/07/16 06:50:41;;;;;;;2.70;2.17;;;;;;;20.74;57.88;99878.42;1820090;78;21018;-79
2022/07/16 06:53:07;;;;;;;7.28;1.90;;;;;;;20.79;56.95;99879.91;1808255;78;20962;-78
2022/07/16 06:55:34;;;;;;;3.08;1.82;;;;;;;20.80;56.49;99878.84;1825865;78;21080;-76
2022/07/16 06:58:01;;;;;;;10.10;2.72;;;;;;;20.85;55.67;99885.73;1810681;78;22334;-80
2022/07/16 07:00:27;;;;;;;3.40;2.40;;;;;;;20.87;54.38;99887.67;1817899;78;21521;-77
2022/07/16 07:02:54;;;;;;;2.33;1.77;;;;;;;20.87;54.07;99884.16;1797787;77;21517;-79
2022/07/16 07:05:20;;;;;;;4.00;2.25;;;;;;;20.90;54.22;99883.17;1821805;78;21548;-79
2022/07/16 07:07:47;;;;;;;2.50;1.50;;;;;;;20.98;53.71;99884.70;1776012;78;21670;-80
2022/07/16 07:10:14;;;;;;;3.98;1.85;;;;;;;21.07;53.53;99882.47;1819873;78;21134;-80
2022/07/16 07:12:40;;;;;;;2.50;1.87;;;;;;;21.12;53.03;99879.36;1783754;78;20998;-76
2022/07/16 07:15:09;;;;;;;6.85;1.92;;;;;;;21.23;53.29;99887.70;1812333;78;21044;-79
2022/07/16 07:17:37;;;;;;;2.02;1.62;;;;;;;21.28;53.32;99881.88;1779372;78;21066;-78
2022/07/16 07:20:11;;;;;;;5.25;2.30;;;;;;;21.34;53.40;99880.97;1817411;78;21005;-80
2022/07/16 07:22:33;;;;;;;3.87;2.27;;;;;;;21.40;53.72;99883.23;1785083;79;21101;-79
2022/07/16 07:25:02;;;;;;;2.70;1.90;;;;;;;21.46;53.78;99880.98;1816347;77;21076;-81
2022/07/16 07:27:28;;;;;;;2.80;2.02;;;;;;;21.50;51.94;99874.55;1795006;77;21021;-79
2022/07/16 07:29:55;;;;;;;2.77;2.02;;;;;;;21.48;50.97;99872.11;1811754;77;21065;-81
2022/07/16 07:32:22;;;;;;;3.92;1.95;;;;;;;21.38;51.12;99879.44;1820317;77;21060;-79
2022/07/16 07:34:48;;;;;;;7.70;3.60;;;;;;;21.36;52.37;99871.25;1786125;78;21421;-81
2022/07/16 07:37:15;;;;;;;3.12;2.40;;;;;;;21.42;53.21;99877.06;1815706;78;21047;-80
2022/07/16 07:39:42;;;;;;;3.60;2.20;;;;;;;21.48;51.78;99878.02;1819084;77;21008;-82
2022/07/16 07:42:09;;;;;;;26.80;24.15;;;;;;;21.49;51.27;99881.03;1788026;78;21025;-79
2022/07/16 07:44:35;;;;;;;4.85;4.40;;;;;;;21.45;50.77;99878.52;1792901;78;21034;-80
2022/07/16 07:47:02;;;;;;;2.55;2.10;;;;;;;21.39;50.97;99877.55;1812923;78;21237;-82
2022/07/16 07:49:30;;;;;;;3.25;1.90;;;;;;;21.32;50.83;99878.19;1774115;79;20990;-79
2022/07/16 07:51:57;;;;;;;3.90;2.40;;;;;;;21.29;51.00;99875.44;1789259;78;21119;-79
2022/07/16 07:54:23;;;;;;;5.72;1.95;;;;;;;21.31;51.46;99873.86;1811515;77;21068;-79
2022/07/16 07:56:50;;;;;;;3.37;2.22;;;;;;;21.34;51.61;99874.21;1809595;77;21002;-79
2022/07/16 07:59:17;;;;;;;2.77;2.12;;;;;;;21.43;51.31;99867.91;1812134;78;21102;-79
2022/07/16 08:01:43;;;;;;;2.20;2.00;;;;;;;21.50;51.22;99869.15;1768450;78;21065;-78
2022/07/16 08:04:11;;;;;;;2.95;1.82;;;;;;;21.56;51.62;99863.63;1809059;78;21084;-77
2022/07/16 08:06:37;;;;;;;3.30;2.40;;;;;;;21.66;51.96;99861.67;1808256;77;21153;-79
2022/07/16 08:09:05;;;;;;;2.58;2.37;;;;;;;21.75;51.70;99860.25;1806371;78;20938;-79
2022/07/16 08:11:33;;;;;;;1.95;1.82;;;;;;;21.84;51.27;99863.39;1758633;80;21292;-79
2022/07/16 08:13:59;;;;;;;4.20;2.05;;;;;;;21.87;50.41;99866.16;1817865;77;21076;-78
2022/07/16 08:16:27;;;;;;;4.85;1.90;;;;;;;21.86;49.51;99862.62;1787486;80;21198;-80
2022/07/16 08:18:53;;;;;;;2.27;1.80;;;;;;;21.84;49.20;99861.22;1802933;77;21073;-81
2022/07/16 08:21:20;;;;;;;3.17;1.80;;;;;;;21.86;48.86;99860.45;1799474;77;21068;-80
2022/07/16 08:26:32;;;;;;;3.05;1.87;;;;;;;22.06;48.25;99858.67;1807128;77;21667;-80
2022/07/16 08:28:58;;;;;;;2.33;1.70;;;;;;;22.11;48.36;99860.95;1794842;78;21609;-81
2022/07/16 08:31:25;;;;;;;4.03;2.05;;;;;;;22.16;48.22;99855.64;1782957;78;21103;-79
2022/07/16 08:33:53;;;;;;;2.55;1.80;;;;;;;22.23;48.75;99851.97;1795752;78;21056;-80
2022/07/16 08:36:19;;;;;;;3.17;2.37;;;;;;;22.34;48.41;99853.29;1805765;78;21107;-76
2022/07/16 08:38:46;;;;;;;3.58;2.52;;;;;;;22.47;48.47;99850.83;1769513;78;21112;-73
2022/07/16 08:41:14;;;;;;;2.42;1.82;;;;;;;22.64;48.56;99847.30;1770964;78;21076;-77
2022/07/16 08:43:41;;;;;;;2.90;1.90;;;;;;;22.84;48.37;99842.77;1789396;78;21137;-75
2022/07/16 08:46:08;;;;;;;4.70;2.20;;;;;;;23.09;47.77;99845.08;1814322;78;20994;-78
2022/07/16 08:48:34;;;;;;;3.47;1.85;;;;;;;23.30;48.21;99836.17;1753297;80;22290;-76
2022/07/16 08:51:01;;;;;;;4.22;2.33;;;;;;;23.49;48.19;99842.13;1803995;78;21053;-79
2022/07/16 08:53:27;;;;;;;2.33;2.10;;;;;;;23.59;47.26;99842.80;1755068;79;21058;-80
2022/07/16 08:55:55;;;;;;;3.60;2.37;;;;;;;23.60;46.95;99840.35;1814199;78;21056;-78
2022/07/16 08:58:23;;;;;;;6.33;2.22;;;;;;;23.57;48.19;99846.30;1816014;78;20990;-77
2022/07/16 09:00:50;;;;;;;4.67;2.00;;;;;;;23.53;48.12;99839.74;1805661;78;21105;-79
2022/07/16 09:03:16;;;;;;;3.55;2.20;;;;;;;23.53;49.20;99845.97;1810973;78;21052;-78
2022/07/16 09:05:42;;;;;;;4.45;2.35;;;;;;;23.55;47.78;99844.38;1786421;79;21033;-78
2022/07/16 09:08:09;;;;;;;3.50;2.50;;;;;;;23.48;49.56;99840.47;1805795;78;21014;-77
2022/07/16 09:10:37;;;;;;;2.87;2.55;;;;;;;23.53;49.84;99835.67;1806709;78;21092;-78
2022/07/16 09:13:05;;;;;;;2.80;2.45;;;;;;;23.67;49.85;99836.92;1801891;78;21227;-79
2022/07/16 09:15:37;;;;;;;5.95;2.47;;;;;;;23.81;49.66;99838.75;1804226;78;21045;-77
2022/07/16 09:18:26;;;;;;;3.22;2.80;;;;;;;23.88;49.76;99833.14;1807223;78;21171;-77
2022/07/16 09:21:02;;;;;;;4.25;2.35;;;;;;;23.93;49.66;99827.24;1786893;79;21017;-76
2022/07/16 09:23:34;;;;;;;3.83;2.80;;;;;;;23.92;49.71;99831.56;1807396;78;21122;-76
2022/07/16 09:26:04;;;;;;;3.12;2.20;;;;;;;23.77;48.59;99839.48;1774559;78;21132;-75
2022/07/16 09:28:50;;;;;;;3.50;2.50;;;;;;;23.49;49.37;99837.25;1807468;78;21076;-76
2022/07/16 09:31:40;;;;;;;3.00;2.25;;;;;;;23.32;49.44;99835.39;1787037;79;21037;-79
2022/07/16 09:34:13;;;;;;;2.50;2.30;;;;;;;23.17;50.00;99843.30;1813520;77;20985;-80
2022/07/16 09:36:58;;;;;;;3.25;2.20;;;;;;;22.99;50.16;99835.42;1808676;78;21009;-81
2022/07/16 09:39:25;;;;;;;6.35;2.25;;;;;;;22.88;50.70;99840.66;1769354;78;21188;-79
2022/07/16 09:41:52;;;;;;;3.30;2.40;;;;;;;23.00;51.14;99831.63;1789900;78;20994;-76
2022/07/16 09:44:27;;;;;;;2.52;1.98;;;;;;;23.36;51.46;99830.29;1790099;78;21049;-80
2022/07/16 09:47:11;;;;;;;3.85;2.00;;;;;;;23.97;50.13;99818.58;1786224;79;21045;-79
2022/07/16 09:49:42;;;;;;;3.77;2.20;;;;;;;24.69;49.36;99821.47;1812556;78;20983;-78
2022/07/16 09:52:31;;;;;;;4.40;2.33;;;;;;;25.63;48.27;99814.98;1789310;78;21195;-81
2022/07/16 09:54:58;;;;;;;5.80;2.27;;;;;;;26.57;46.35;99810.85;1771651;80;21033;-78
2022/07/16 09:57:27;;;;;;;2.37;2.17;;;;;;;27.56;44.41;99811.23;1803866;78;21028;-80
2022/07/16 09:59:55;;;;;;;2.50;2.30;;;;;;;28.35;40.57;99811.36;1790868;78;21128;-78
2022/07/16 10:02:23;;;;;;;7.12;3.40;;;;;;;28.71;39.15;99800.19;1815316;78;21049;-79
2022/07/16 10:04:50;;;;;;;4.03;2.60;;;;;;;28.92;39.73;99796.70;1804179;78;21247;-82
2022/07/16 10:07:17;;;;;;;2.20;2.00;;;;;;;29.30;39.92;99802.33;1793455;80;21108;-77
2022/07/16 10:10:29;;;;;;;2.85;2.30;;;;;;;29.72;39.53;99797.17;1803340;78;22525;-79
2022/07/16 10:12:56;;;;;;;4.78;3.05;;;;;;;29.46;38.75;99803.52;1703074;83;21055;-81
2022/07/16 10:15:22;;;;;;;2.10;2.00;;;;;;;28.75;39.41;99799.87;1720303;83;21505;-78
2022/07/16 10:17:49;;;;;;;2.33;2.12;;;;;;;28.27;40.34;99798.88;1723997;83;21057;-80
2022/07/16 10:20:19;;;;;;;5.55;2.95;;;;;;;28.12;40.93;99797.06;1709796;83;21045;-79
2022/07/16 10:22:49;;;;;;;3.55;2.60;;;;;;;28.40;40.72;99795.50;1723016;83;21108;-79
2022/07/16 10:25:25;;;;;;;4.65;2.52;;;;;;;28.83;40.07;99791.59;1725344;81;21038;-81
2022/07/16 10:27:53;;;;;;;3.60;2.60;;;;;;;29.26;38.16;99790.90;1745135;81;21751;-78
2022/07/16 10:30:26;;;;;;;3.08;2.55;;;;;;;29.65;38.25;99787.97;1747841;81;20939;-78
2022/07/16 10:33:02;;;;;;;;;;;;;;;30.26;37.61;99779.98;1758123;81;21511;-78
2022/07/16 10:35:45;;;;;;;4.03;2.22;;;;;;;31.12;37.01;99773.59;1733682;81;20192;-80
2022/07/16 10:38:24;;;;;;;4.90;2.12;;;;;;;32.02;35.17;99768.16;1754100;81;21065;-79
2022/07/16 10:41:20;;;;;;;2.75;2.50;;;;;;;32.89;34.60;99771.48;1751470;81;21524;-80
2022/07/16 10:44:09;;;;;;;3.85;2.58;;;;;;;33.22;32.96;99769.20;1753083;81;21506;-79
2022/07/16 10:46:57;;;;;;;3.90;2.42;;;;;;;32.57;32.25;99778.94;1743959;81;21097;-80
2022/07/16 10:49:25;;;;;;;3.35;2.40;;;;;;;31.43;33.87;99781.20;1718866;81;21521;-79
2022/07/16 10:52:08;;;;;;;4.20;2.77;;;;;;;30.60;34.37;99778.36;1736542;81;21069;-79
2022/07/16 10:54:42;;;;;;;3.83;2.58;;;;;;;29.83;35.27;99779.53;1753705;81;21006;-79
2022/07/16 10:57:11;;;;;;;3.08;2.60;;;;;;;29.20;36.08;99777.83;1753816;81;21109;-78
2022/07/16 10:59:40;;;;;;;2.55;2.33;;;;;;;28.97;36.73;99779.42;1746415;80;21109;-78
2022/07/16 11:02:11;;;;;;;2.25;2.15;;;;;;;29.04;36.76;99774.98;1750150;80;21046;-80
2022/07/16 11:04:44;;;;;;;2.50;2.30;;;;;;;29.44;36.23;99768.26;1732775;81;21104;-81
2022/07/16 11:07:16;;;;;;;3.65;2.65;;;;;;;29.92;35.51;99764.08;1753987;81;21082;-80
2022/07/16 11:09:48;;;;;;;4.08;2.62;;;;;;;30.15;34.96;99763.72;1727988;81;21633;-81
2022/07/16 11:12:24;;;;;;;3.37;2.33;;;;;;;30.45;35.36;99764.92;1731232;82;21039;-79
2022/07/16 11:14:54;;;;;;;3.72;2.75;;;;;;;30.85;35.36;99756.52;1725862;82;21523;-79
2022/07/16 11:17:24;;;;;;;2.65;2.45;;;;;;;31.36;35.54;99757.46;1733690;82;21054;-78
2022/07/16 11:19:55;;;;;;;2.67;2.47;;;;;;;32.12;34.30;99759.66;1741085;81;21280;-80
2022/07/16 11:22:24;;;;;;;2.40;2.20;;;;;;;32.97;33.54;99754.77;1723298;81;21022;-80
2022/07/16 11:24:53;;;;;;;2.00;1.90;;;;;;;33.78;32.77;99751.59;1738751;81;21078;-78
2022/07/16 11:27:31;;;;;;;2.67;2.37;;;;;;;34.34;30.73;99750.95;1663805;86;21007;-79
2022/07/16 11:30:00;;;;;;;3.60;1.92;;;;;;;33.88;31.67;99747.70;1740571;81;21585;-81
2022/07/16 11:32:27;;;;;;;4.47;2.25;;;;;;;33.46;32.11;99750.90;1738250;81;21218;-80
2022/07/16 11:34:54;;;;;;;2.30;2.10;;;;;;;33.20;32.42;99741.77;1701142;82;21101;-81
2022/07/16 11:37:21;;;;;;;2.58;2.15;;;;;;;33.28;32.73;99743.72;1722617;81;21037;-80
2022/07/16 11:39:48;;;;;;;2.15;2.05;;;;;;;33.70;32.10;99752.41;1740903;81;21050;-80
2022/07/16 11:42:22;;;;;;;3.62;2.50;;;;;;;34.15;29.86;99751.27;1657860;85;21113;-82
2022/07/16 11:44:49;;;;;;;3.67;2.25;;;;;;;34.24;29.54;99746.02;1739383;81;21255;-81